createdAt,value
2023-03-22T00:02:07.813Z,11.47
2023-03-22T00:04:34.512Z,11.44
2023-03-22T00:07:01.082Z,11.30
2023-03-22T00:09:27.643Z,11.30
2023-03-22T00:11:54.263Z,11.31
2023-03-22T00:14:20.871Z,11.32
2023-03-22T00:16:49.219Z,11.20
2023-03-22T00:19:17.415Z,11.07
2023-03-22T00:21:44.699Z,11.11
2023-03-22T00:24:11.454Z,11.16
2023-03-22T00:26:38.141Z,11.18
2023-03-22T00:29:04.933Z,11.24
2023-03-22T00:31:31.832Z,11.28
2023-03-22T00:33:58.457Z,11.35
2023-03-22T00:36:25.047Z,11.36
2023-03-22T00:38:51.961Z,11.35
2023-03-22T00:41:23.396Z,11.39
2023-03-22T00:43:51.596Z,11.40
2023-03-22T00:46:20.278Z,11.43
2023-03-22T00:48:47.583Z,11.38
2023-03-22T00:51:15.125Z,11.22
2023-03-22T00:53:43.464Z,11.35
2023-03-22T00:56:14.214Z,11.26
2023-03-22T00:58:41.524Z,11.26
2023-03-22T01:01:08.466Z,11.24
2023-03-22T01:03:35.268Z,11.28
2023-03-22T01:06:02.028Z,11.32
2023-03-22T01:08:33.432Z,11.29
2023-03-22T01:11:01.376Z,11.20
2023-03-22T01:13:29.050Z,11.27
2023-03-22T01:15:56.038Z,11.14
2023-03-22T01:18:22.945Z,11.21
2023-03-22T01:20:49.603Z,11.20
2023-03-22T01:23:16.195Z,11.16
2023-03-22T01:25:43.322Z,11.07
2023-03-22T01:28:10.185Z,11.02
2023-03-22T01:30:40.165Z,11.16
2023-03-22T01:33:07.770Z,11.13
2023-03-22T01:35:34.813Z,11.18
2023-03-22T01:38:01.502Z,11.13
2023-03-22T01:40:28.128Z,11.17
2023-03-22T01:42:55.806Z,11.19
2023-03-22T01:45:38.556Z,11.20
2023-03-22T01:48:19.378Z,11.21
2023-03-22T01:50:56.245Z,11.09
2023-03-22T01:53:25.706Z,11.14
2023-03-22T01:55:54.439Z,11.16
2023-03-22T01:58:21.018Z,11.17
2023-03-22T02:00:49.084Z,11.18
2023-03-22T02:03:24.813Z,11.19
2023-03-22T02:05:52.032Z,11.15
2023-03-22T02:08:18.809Z,11.19
2023-03-22T02:10:45.631Z,11.20
2023-03-22T02:13:32.983Z,11.21
2023-03-22T02:16:25.235Z,11.20
2023-03-22T02:19:30.611Z,11.24
2023-03-22T02:22:28.919Z,11.24
2023-03-22T02:25:17.644Z,11.27
2023-03-22T02:28:14.242Z,11.21
2023-03-22T02:30:46.724Z,11.23
2023-03-22T02:33:30.044Z,11.23
2023-03-22T02:35:56.686Z,11.22
2023-03-22T02:38:47.771Z,11.25
2023-03-22T02:41:27.819Z,11.25
2023-03-22T02:44:18.224Z,11.26
2023-03-22T02:46:49.968Z,11.22
2023-03-22T02:49:42.681Z,11.23
2023-03-22T02:52:27.789Z,11.17
2023-03-22T02:55:13.886Z,11.07
2023-03-22T02:58:06.971Z,11.14
2023-03-22T03:00:36.653Z,11.13
2023-03-22T03:03:11.306Z,11.16
2023-03-22T03:05:45.659Z,11.15
2023-03-22T03:08:13.938Z,10.92
2023-03-22T03:10:42.117Z,10.87
2023-03-22T03:13:18.924Z,10.87
2023-03-22T03:15:50.587Z,10.89
2023-03-22T03:18:44.780Z,10.91
2023-03-22T03:21:32.770Z,10.87
2023-03-22T03:24:15.519Z,10.82
2023-03-22T03:26:57.413Z,10.78
2023-03-22T03:29:45.781Z,10.73
2023-03-22T03:32:35.253Z,10.64
2023-03-22T03:35:09.646Z,10.58
2023-03-22T03:37:41.500Z,10.62
2023-03-22T03:40:17.439Z,10.65
2023-03-22T03:42:50.607Z,10.67
2023-03-22T03:45:19.157Z,10.51
2023-03-22T03:47:48.149Z,10.53
2023-03-22T03:50:16.607Z,10.52
2023-03-22T03:52:43.372Z,10.53
2023-03-22T03:55:10.140Z,10.53
2023-03-22T03:57:36.689Z,10.45
2023-03-22T04:00:04.317Z,10.41
2023-03-22T04:02:30.969Z,10.42
2023-03-22T04:04:57.532Z,10.35
2023-03-22T04:07:24.157Z,10.45
2023-03-22T04:09:50.905Z,10.50
2023-03-22T04:12:17.536Z,10.53
2023-03-22T04:14:44.951Z,10.49
2023-03-22T04:17:11.394Z,10.47
2023-03-22T04:19:37.914Z,10.46
2023-03-22T04:22:04.459Z,10.44
2023-03-22T04:24:31.019Z,10.44
2023-03-22T04:26:57.585Z,10.38
2023-03-22T04:29:24.635Z,10.36
2023-03-22T04:31:53.057Z,10.37
2023-03-22T04:34:19.665Z,10.33
2023-03-22T04:36:47.024Z,10.26
2023-03-22T04:39:13.741Z,10.14
2023-03-22T04:41:40.408Z,10.18
2023-03-22T04:44:07.760Z,10.23
2023-03-22T04:46:35.449Z,10.18
2023-03-22T04:49:02.163Z,10.15
2023-03-22T04:51:29.056Z,10.21
2023-03-22T04:53:55.743Z,10.21
2023-03-22T04:56:22.565Z,10.24
2023-03-22T04:58:49.131Z,10.15
2023-03-22T05:01:17.830Z,10.20
2023-03-22T05:03:48.588Z,10.29
2023-03-22T05:06:15.875Z,10.34
2023-03-22T05:08:42.716Z,10.32
2023-03-22T05:11:13.188Z,10.34
2023-03-22T05:13:40.755Z,10.39
2023-03-22T05:16:08.129Z,10.49
2023-03-22T05:18:35.109Z,10.62
2023-03-22T05:21:03.906Z,10.72
2023-03-22T05:23:30.640Z,10.68
2023-03-22T05:25:58.367Z,10.75
2023-03-22T05:28:27.186Z,10.77
2023-03-22T05:30:56.569Z,10.81
2023-03-22T05:33:23.598Z,10.76
2023-03-22T05:35:51.248Z,10.81
2023-03-22T05:38:18.063Z,10.83
2023-03-22T05:40:45.213Z,10.83
2023-03-22T05:43:12.468Z,10.87
2023-03-22T05:45:39.176Z,10.79
2023-03-22T05:48:06.583Z,10.88
2023-03-22T05:50:33.709Z,10.91
2023-03-22T05:53:00.508Z,10.94
2023-03-22T05:55:27.328Z,10.95
2023-03-22T05:57:54.832Z,11.05
2023-03-22T06:00:21.908Z,11.16
2023-03-22T06:02:49.734Z,11.16
2023-03-22T06:05:17.547Z,11.23
2023-03-22T06:07:44.926Z,11.27
2023-03-22T06:10:13.138Z,11.23
2023-03-22T06:12:39.714Z,11.23
2023-03-22T06:15:07.014Z,11.24
2023-03-22T06:17:33.849Z,11.35
2023-03-22T06:20:00.415Z,11.13
2023-03-22T06:22:27.108Z,11.19
2023-03-22T06:24:53.653Z,11.23
2023-03-22T06:27:20.381Z,11.13
2023-03-22T06:29:50.848Z,11.17
2023-03-22T06:32:19.097Z,11.27
2023-03-22T06:34:45.780Z,11.36
2023-03-22T06:37:12.329Z,11.38
2023-03-22T06:39:38.926Z,11.53
2023-03-22T06:42:05.737Z,11.54
2023-03-22T06:44:32.240Z,11.48
2023-03-22T06:46:58.780Z,11.54
2023-03-22T06:49:26.542Z,11.49
2023-03-22T06:51:53.057Z,11.54
2023-03-22T06:54:19.710Z,11.55
2023-03-22T06:56:46.440Z,11.58
2023-03-22T06:59:13.021Z,11.61
2023-03-22T07:01:39.634Z,11.78
2023-03-22T07:04:06.493Z,11.86
2023-03-22T07:06:33.185Z,12.02
2023-03-22T07:08:59.791Z,12.49
2023-03-22T07:11:26.597Z,13.32
2023-03-22T07:13:54.607Z,13.74
2023-03-22T07:16:22.433Z,14.14
2023-03-22T07:18:49.361Z,14.30
2023-03-22T07:21:16.273Z,14.74
2023-03-22T07:23:43.167Z,14.65
2023-03-22T07:26:09.677Z,14.75
2023-03-22T07:28:36.209Z,14.70
2023-03-22T07:31:09.926Z,14.69
2023-03-22T07:33:36.483Z,14.43
2023-03-22T07:36:03.475Z,14.71
2023-03-22T07:38:29.984Z,15.03
2023-03-22T07:40:56.530Z,14.98
2023-03-22T07:43:23.242Z,14.46
2023-03-22T07:45:50.995Z,14.51
2023-03-22T07:48:19.908Z,14.09
2023-03-22T07:50:47.335Z,13.98
2023-03-22T07:53:14.267Z,13.81
2023-03-22T07:55:44.383Z,13.85
2023-03-22T07:58:11.007Z,13.85
2023-03-22T08:00:37.858Z,13.65
2023-03-22T08:03:04.749Z,13.58
2023-03-22T08:05:31.411Z,13.50
2023-03-22T08:07:57.920Z,13.32
2023-03-22T08:10:24.439Z,13.18
2023-03-22T08:12:51.346Z,13.27
2023-03-22T08:15:18.002Z,13.33
2023-03-22T08:17:44.709Z,13.44
2023-03-22T08:20:12.907Z,14.05
2023-03-22T08:22:39.582Z,14.39
2023-03-22T08:25:07.236Z,14.64
2023-03-22T08:27:33.830Z,15.16
2023-03-22T08:30:00.929Z,15.63
2023-03-22T08:32:27.550Z,15.60
2023-03-22T08:34:54.157Z,15.15
2023-03-22T08:37:20.777Z,14.87
2023-03-22T08:39:47.370Z,15.04
2023-03-22T08:42:13.918Z,15.10
2023-03-22T08:44:40.633Z,14.88
2023-03-22T08:47:07.427Z,14.70
2023-03-22T08:49:34.189Z,14.45
2023-03-22T08:52:00.848Z,14.38
2023-03-22T08:54:33.682Z,14.59
2023-03-22T08:57:00.700Z,14.61
2023-03-22T08:59:27.908Z,14.72
2023-03-22T09:01:54.692Z,15.49
2023-03-22T09:04:21.346Z,16.37
2023-03-22T09:06:47.939Z,16.34
2023-03-22T09:09:14.848Z,15.61
2023-03-22T09:11:42.869Z,15.48
2023-03-22T09:14:10.786Z,15.50
2023-03-22T09:16:37.629Z,15.20
2023-03-22T09:19:04.371Z,14.97
2023-03-22T09:21:31.087Z,14.72
2023-03-22T09:23:57.641Z,14.49
2023-03-22T09:26:25.618Z,14.59
2023-03-22T09:28:52.335Z,14.61
2023-03-22T09:31:20.583Z,14.49
2023-03-22T09:33:47.858Z,14.46
2023-03-22T09:36:14.468Z,14.46
2023-03-22T09:38:42.098Z,14.32
2023-03-22T09:41:16.241Z,14.33
2023-03-22T09:43:48.655Z,14.27
2023-03-22T09:46:29.914Z,14.00
2023-03-22T09:48:59.390Z,14.01
2023-03-22T09:51:38.767Z,14.12
2023-03-22T09:54:14.236Z,14.26
2023-03-22T09:56:41.056Z,14.32
2023-03-22T09:59:34.127Z,14.44
2023-03-22T10:02:04.817Z,14.96
2023-03-22T10:04:57.559Z,15.11
2023-03-22T10:07:38.693Z,14.96
2023-03-22T10:10:18.568Z,14.98
2023-03-22T10:13:06.700Z,14.79
2023-03-22T10:15:43.321Z,14.89
2023-03-22T10:18:21.733Z,14.80
2023-03-22T10:21:05.189Z,14.82
2023-03-22T10:23:35.379Z,14.71
2023-03-22T10:26:04.018Z,14.73
2023-03-22T10:28:48.259Z,14.76
2023-03-22T10:31:21.331Z,14.74
2023-03-22T10:33:59.105Z,14.75
2023-03-22T10:36:31.572Z,14.82
2023-03-22T10:39:04.106Z,14.80
2023-03-22T10:41:33.424Z,14.69
2023-03-22T10:44:03.172Z,14.71
2023-03-22T10:46:36.385Z,14.81
2023-03-22T10:49:05.881Z,14.88
2023-03-22T10:51:47.836Z,14.87
2023-03-22T10:54:17.178Z,14.87
2023-03-22T10:56:45.045Z,14.84
2023-03-22T10:59:51.321Z,14.69
2023-03-22T11:02:23.076Z,14.67
2023-03-22T11:04:52.695Z,14.61
2023-03-22T11:07:42.826Z,14.51
2023-03-22T11:10:09.330Z,14.32
2023-03-22T11:13:10.573Z,14.35
2023-03-22T11:15:48.958Z,14.35
2023-03-22T11:18:17.459Z,14.46
2023-03-22T11:20:55.816Z,14.29
2023-03-22T11:23:24.307Z,14.32
2023-03-22T11:25:55.624Z,14.46
2023-03-22T11:28:36.670Z,14.48
2023-03-22T11:31:25.996Z,14.43
2023-03-22T11:33:58.651Z,14.27
2023-03-22T11:36:26.456Z,14.25
2023-03-22T11:39:07.271Z,14.35
2023-03-22T11:41:39.325Z,14.32
2023-03-22T11:44:10.892Z,14.47
2023-03-22T11:46:38.601Z,14.60
2023-03-22T11:49:09.321Z,14.75
2023-03-22T11:51:38.896Z,14.80
2023-03-22T11:54:32.011Z,14.67
2023-03-22T11:57:02.873Z,14.62
2023-03-22T11:59:36.444Z,14.67
2023-03-22T12:02:24.117Z,14.59
2023-03-22T12:04:57.397Z,14.61
2023-03-22T12:07:26.024Z,14.64
2023-03-22T12:10:00.109Z,14.69
2023-03-22T12:12:33.266Z,14.72
2023-03-22T12:15:05.090Z,14.81
2023-03-22T12:18:07.722Z,14.76
2023-03-22T12:20:49.364Z,14.66
2023-03-22T12:23:19.676Z,14.55
2023-03-22T12:26:11.607Z,14.55
2023-03-22T12:28:56.835Z,14.55
2023-03-22T12:31:36.230Z,14.51
2023-03-22T12:34:19.660Z,14.52
2023-03-22T12:36:55.573Z,14.55
2023-03-22T12:39:37.885Z,14.50
2023-03-22T12:42:17.815Z,14.43
2023-03-22T12:44:55.536Z,14.51
2023-03-22T12:48:07.985Z,14.47
2023-03-22T12:50:45.016Z,14.47
2023-03-22T12:53:15.622Z,14.53
2023-03-22T12:55:44.616Z,14.55
2023-03-22T12:58:18.417Z,14.58
2023-03-22T13:01:01.298Z,14.62
2023-03-22T13:03:37.144Z,14.89
2023-03-22T13:06:28.074Z,15.02
2023-03-22T13:09:09.883Z,15.01
2023-03-22T13:11:36.676Z,15.06
2023-03-22T13:14:03.590Z,15.11
2023-03-22T13:16:55.700Z,15.21
2023-03-22T13:19:33.213Z,15.26
2023-03-22T13:22:21.111Z,15.30
2023-03-22T13:25:10.013Z,15.16
2023-03-22T13:27:45.642Z,15.07
2023-03-22T13:30:33.395Z,15.07
2023-03-22T13:33:15.046Z,15.06
2023-03-22T13:35:46.627Z,15.21
2023-03-22T13:38:16.656Z,15.17
2023-03-22T13:41:10.873Z,15.10
2023-03-22T13:43:43.362Z,15.15
2023-03-22T13:46:22.159Z,15.22
2023-03-22T13:48:54.125Z,15.38
2023-03-22T13:51:21.092Z,15.51
2023-03-22T13:54:16.493Z,15.52
2023-03-22T13:57:01.078Z,15.47
2023-03-22T13:59:27.843Z,15.62
2023-03-22T14:02:00.067Z,15.64
2023-03-22T14:04:40.716Z,15.56
2023-03-22T14:07:20.146Z,15.43
2023-03-22T14:09:53.044Z,15.61
2023-03-22T14:12:28.296Z,15.50
2023-03-22T14:15:02.499Z,15.48
2023-03-22T14:17:32.161Z,15.51
2023-03-22T14:20:00.002Z,15.53
